sensor_id;sensor_type;location;lat;lon;timestamp;temperature;humidity
22456;DHT22;11395;53.204;6.502;2023-04-24T00:00:58;23.80;58.50
22456;DHT22;11395;53.204;6.502;2023-04-24T00:03:26;23.80;58.30
22456;DHT22;11395;53.204;6.502;2023-04-24T00:05:54;23.90;58.30
22456;DHT22;11395;53.204;6.502;2023-04-24T00:08:20;23.80;58.20
22456;DHT22;11395;53.204;6.502;2023-04-24T00:10:48;23.90;58.20
22456;DHT22;11395;53.204;6.502;2023-04-24T00:13:14;23.90;58.30
22456;DHT22;11395;53.204;6.502;2023-04-24T00:15:40;23.80;58.10
22456;DHT22;11395;53.204;6.502;2023-04-24T00:18:07;23.80;58.50
22456;DHT22;11395;53.204;6.502;2023-04-24T00:20:34;23.70;58.50
22456;DHT22;11395;53.204;6.502;2023-04-24T00:23:01;23.70;58.60
22456;DHT22;11395;53.204;6.502;2023-04-24T00:25:27;23.70;58.60
22456;DHT22;11395;53.204;6.502;2023-04-24T00:27:53;23.70;58.50
22456;DHT22;11395;53.204;6.502;2023-04-24T00:30:20;23.60;58.50
22456;DHT22;11395;53.204;6.502;2023-04-24T00:32:46;23.60;58.50
22456;DHT22;11395;53.204;6.502;2023-04-24T00:35:12;23.60;58.50
22456;DHT22;11395;53.204;6.502;2023-04-24T00:37:39;23.60;58.60
22456;DHT22;11395;53.204;6.502;2023-04-24T00:40:05;23.60;58.50
22456;DHT22;11395;53.204;6.502;2023-04-24T00:42:33;23.50;58.70
22456;DHT22;11395;53.204;6.502;2023-04-24T00:45:00;23.50;58.80
22456;DHT22;11395;53.204;6.502;2023-04-24T00:47:26;23.40;58.80
22456;DHT22;11395;53.204;6.502;2023-04-24T00:49:53;23.40;58.80
22456;DHT22;11395;53.204;6.502;2023-04-24T00:52:20;23.40;58.90
22456;DHT22;11395;53.204;6.502;2023-04-24T00:54:50;23.40;58.70
22456;DHT22;11395;53.204;6.502;2023-04-24T00:57:16;23.40;58.70
22456;DHT22;11395;53.204;6.502;2023-04-24T00:59:44;23.50;58.60
22456;DHT22;11395;53.204;6.502;2023-04-24T01:02:11;23.40;58.50
22456;DHT22;11395;53.204;6.502;2023-04-24T01:04:38;23.40;58.70
22456;DHT22;11395;53.204;6.502;2023-04-24T01:07:05;23.40;58.60
22456;DHT22;11395;53.204;6.502;2023-04-24T01:09:40;23.40;58.70
22456;DHT22;11395;53.204;6.502;2023-04-24T01:12:09;23.40;58.70
22456;DHT22;11395;53.204;6.502;2023-04-24T01:14:37;23.40;58.60
22456;DHT22;11395;53.204;6.502;2023-04-24T01:17:04;23.40;58.90
22456;DHT22;11395;53.204;6.502;2023-04-24T01:19:30;23.30;58.80
22456;DHT22;11395;53.204;6.502;2023-04-24T01:21:58;23.30;58.90
22456;DHT22;11395;53.204;6.502;2023-04-24T01:24:28;23.30;59.00
22456;DHT22;11395;53.204;6.502;2023-04-24T01:26:54;23.20;59.00
22456;DHT22;11395;53.204;6.502;2023-04-24T01:29:21;23.20;59.10
22456;DHT22;11395;53.204;6.502;2023-04-24T01:31:47;23.20;59.00
22456;DHT22;11395;53.204;6.502;2023-04-24T01:34:14;23.20;59.10
22456;DHT22;11395;53.204;6.502;2023-04-24T01:36:41;23.20;59.10
22456;DHT22;11395;53.204;6.502;2023-04-24T01:39:08;23.20;59.20
22456;DHT22;11395;53.204;6.502;2023-04-24T01:41:35;23.20;59.10
22456;DHT22;11395;53.204;6.502;2023-04-24T01:44:01;23.10;59.00
22456;DHT22;11395;53.204;6.502;2023-04-24T01:46:28;23.10;59.10
22456;DHT22;11395;53.204;6.502;2023-04-24T01:48:54;23.10;59.10
22456;DHT22;11395;53.204;6.502;2023-04-24T01:51:20;23.10;59.80
22456;DHT22;11395;53.204;6.502;2023-04-24T01:53:47;23.10;59.80
22456;DHT22;11395;53.204;6.502;2023-04-24T01:56:14;23.10;59.20
22456;DHT22;11395;53.204;6.502;2023-04-24T01:58:41;23.00;59.80
22456;DHT22;11395;53.204;6.502;2023-04-24T02:01:07;23.00;59.20
22456;DHT22;11395;53.204;6.502;2023-04-24T02:03:33;23.00;59.30
22456;DHT22;11395;53.204;6.502;2023-04-24T02:06:00;23.00;59.30
22456;DHT22;11395;53.204;6.502;2023-04-24T02:08:26;22.90;59.20
22456;DHT22;11395;53.204;6.502;2023-04-24T02:10:52;22.90;59.30
22456;DHT22;11395;53.204;6.502;2023-04-24T02:13:18;22.90;59.40
22456;DHT22;11395;53.204;6.502;2023-04-24T02:15:44;22.90;59.30
22456;DHT22;11395;53.204;6.502;2023-04-24T02:18:10;22.90;59.40
22456;DHT22;11395;53.204;6.502;2023-04-24T02:20:38;22.90;59.40
22456;DHT22;11395;53.204;6.502;2023-04-24T02:23:04;22.90;59.40
22456;DHT22;11395;53.204;6.502;2023-04-24T02:25:31;22.80;59.40
22456;DHT22;11395;53.204;6.502;2023-04-24T02:27:57;22.80;59.40
22456;DHT22;11395;53.204;6.502;2023-04-24T02:30:23;22.80;59.40
22456;DHT22;11395;53.204;6.502;2023-04-24T02:32:49;22.80;59.40
22456;DHT22;11395;53.204;6.502;2023-04-24T02:35:16;22.80;59.40
22456;DHT22;11395;53.204;6.502;2023-04-24T02:37:42;22.70;59.50
22456;DHT22;11395;53.204;6.502;2023-04-24T02:40:12;22.70;59.50
22456;DHT22;11395;53.204;6.502;2023-04-24T02:42:38;22.70;59.50
22456;DHT22;11395;53.204;6.502;2023-04-24T02:45:04;22.70;59.50
22456;DHT22;11395;53.204;6.502;2023-04-24T02:47:31;22.70;59.50
22456;DHT22;11395;53.204;6.502;2023-04-24T02:49:57;22.70;59.60
22456;DHT22;11395;53.204;6.502;2023-04-24T02:52:23;22.60;59.60
22456;DHT22;11395;53.204;6.502;2023-04-24T02:54:49;22.60;59.60
22456;DHT22;11395;53.204;6.502;2023-04-24T02:57:15;22.60;59.70
22456;DHT22;11395;53.204;6.502;2023-04-24T02:59:42;22.60;59.80
22456;DHT22;11395;53.204;6.502;2023-04-24T03:02:08;22.60;59.70
22456;DHT22;11395;53.204;6.502;2023-04-24T03:04:35;22.50;59.80
22456;DHT22;11395;53.204;6.502;2023-04-24T03:07:01;22.50;59.90
22456;DHT22;11395;53.204;6.502;2023-04-24T03:09:27;22.50;59.80
22456;DHT22;11395;53.204;6.502;2023-04-24T03:11:53;22.50;59.80
22456;DHT22;11395;53.204;6.502;2023-04-24T03:14:19;22.50;59.80
22456;DHT22;11395;53.204;6.502;2023-04-24T03:16:46;22.50;59.90
22456;DHT22;11395;53.204;6.502;2023-04-24T03:19:12;22.50;59.80
22456;DHT22;11395;53.204;6.502;2023-04-24T03:21:50;22.50;59.90
22456;DHT22;11395;53.204;6.502;2023-04-24T03:24:17;22.40;59.90
22456;DHT22;11395;53.204;6.502;2023-04-24T03:26:43;22.40;59.90
22456;DHT22;11395;53.204;6.502;2023-04-24T03:29:19;22.40;59.90
22456;DHT22;11395;53.204;6.502;2023-04-24T03:31:46;22.40;59.90
22456;DHT22;11395;53.204;6.502;2023-04-24T03:34:12;22.40;60.00
22456;DHT22;11395;53.204;6.502;2023-04-24T03:36:39;22.40;60.00
22456;DHT22;11395;53.204;6.502;2023-04-24T03:39:07;22.40;60.00
22456;DHT22;11395;53.204;6.502;2023-04-24T03:41:34;22.30;60.00
22456;DHT22;11395;53.204;6.502;2023-04-24T03:44:07;22.40;60.00
22456;DHT22;11395;53.204;6.502;2023-04-24T03:46:33;22.30;60.00
22456;DHT22;11395;53.204;6.502;2023-04-24T03:49:01;22.30;60.00
22456;DHT22;11395;53.204;6.502;2023-04-24T03:51:32;22.30;60.00
22456;DHT22;11395;53.204;6.502;2023-04-24T03:54:08;22.30;60.10
22456;DHT22;11395;53.204;6.502;2023-04-24T03:56:37;22.30;59.90
22456;DHT22;11395;53.204;6.502;2023-04-24T03:59:03;22.30;59.80
22456;DHT22;11395;53.204;6.502;2023-04-24T04:01:30;22.40;59.80
22456;DHT22;11395;53.204;6.502;2023-04-24T04:04:08;22.40;59.60
22456;DHT22;11395;53.204;6.502;2023-04-24T04:06:36;22.50;59.70
22456;DHT22;11395;53.204;6.502;2023-04-24T04:09:03;22.60;59.70
22456;DHT22;11395;53.204;6.502;2023-04-24T04:11:29;22.70;59.70
22456;DHT22;11395;53.204;6.502;2023-04-24T04:13:56;22.70;59.70
22456;DHT22;11395;53.204;6.502;2023-04-24T04:16:23;22.80;59.80
22456;DHT22;11395;53.204;6.502;2023-04-24T04:18:53;22.90;59.60
22456;DHT22;11395;53.204;6.502;2023-04-24T04:21:19;23.00;59.40
22456;DHT22;11395;53.204;6.502;2023-04-24T04:23:47;23.20;59.30
22456;DHT22;11395;53.204;6.502;2023-04-24T04:26:21;23.30;59.20
22456;DHT22;11395;53.204;6.502;2023-04-24T04:29:12;23.30;59.00
22456;DHT22;11395;53.204;6.502;2023-04-24T04:31:42;23.40;58.90
22456;DHT22;11395;53.204;6.502;2023-04-24T04:34:11;23.50;58.90
22456;DHT22;11395;53.204;6.502;2023-04-24T04:36:39;23.60;58.90
22456;DHT22;11395;53.204;6.502;2023-04-24T04:39:19;23.60;58.80
22456;DHT22;11395;53.204;6.502;2023-04-24T04:41:56;23.60;58.70
22456;DHT22;11395;53.204;6.502;2023-04-24T04:44:29;23.70;58.70
22456;DHT22;11395;53.204;6.502;2023-04-24T04:46:57;23.70;58.60
22456;DHT22;11395;53.204;6.502;2023-04-24T04:49:28;23.80;58.50
22456;DHT22;11395;53.204;6.502;2023-04-24T04:51:55;23.80;58.50
22456;DHT22;11395;53.204;6.502;2023-04-24T04:54:24;23.90;58.40
22456;DHT22;11395;53.204;6.502;2023-04-24T04:56:50;24.00;58.30
22456;DHT22;11395;53.204;6.502;2023-04-24T04:59:17;24.10;58.90
22456;DHT22;11395;53.204;6.502;2023-04-24T05:01:44;24.20;58.80
22456;DHT22;11395;53.204;6.502;2023-04-24T05:04:12;24.30;58.10
22456;DHT22;11395;53.204;6.502;2023-04-24T05:06:38;24.40;58.00
22456;DHT22;11395;53.204;6.502;2023-04-24T05:09:05;24.50;58.00
22456;DHT22;11395;53.204;6.502;2023-04-24T05:11:40;24.60;57.80
22456;DHT22;11395;53.204;6.502;2023-04-24T05:14:06;24.70;57.80
22456;DHT22;11395;53.204;6.502;2023-04-24T05:16:36;24.80;57.70
22456;DHT22;11395;53.204;6.502;2023-04-24T05:19:04;24.80;57.60
22456;DHT22;11395;53.204;6.502;2023-04-24T05:21:36;24.90;57.50
22456;DHT22;11395;53.204;6.502;2023-04-24T05:24:02;24.90;57.50
22456;DHT22;11395;53.204;6.502;2023-04-24T05:26:51;25.00;57.40
22456;DHT22;11395;53.204;6.502;2023-04-24T05:29:23;25.00;57.30
22456;DHT22;11395;53.204;6.502;2023-04-24T05:31:49;25.10;57.30
22456;DHT22;11395;53.204;6.502;2023-04-24T05:34:15;25.10;57.20
22456;DHT22;11395;53.204;6.502;2023-04-24T05:36:44;25.10;57.20
22456;DHT22;11395;53.204;6.502;2023-04-24T05:39:10;25.10;57.00
22456;DHT22;11395;53.204;6.502;2023-04-24T05:41:37;25.10;57.10
22456;DHT22;11395;53.204;6.502;2023-04-24T05:44:03;25.20;57.00
22456;DHT22;11395;53.204;6.502;2023-04-24T05:46:29;25.20;56.80
22456;DHT22;11395;53.204;6.502;2023-04-24T05:48:56;25.20;56.70
22456;DHT22;11395;53.204;6.502;2023-04-24T05:51:23;25.20;56.70
22456;DHT22;11395;53.204;6.502;2023-04-24T05:53:49;25.20;56.60
22456;DHT22;11395;53.204;6.502;2023-04-24T05:56:16;25.20;56.60
22456;DHT22;11395;53.204;6.502;2023-04-24T05:58:42;25.20;56.50
22456;DHT22;11395;53.204;6.502;2023-04-24T06:01:09;25.10;56.40
22456;DHT22;11395;53.204;6.502;2023-04-24T06:03:37;25.10;56.50
22456;DHT22;11395;53.204;6.502;2023-04-24T06:06:03;25.10;56.50
22456;DHT22;11395;53.204;6.502;2023-04-24T06:08:30;25.10;56.50
22456;DHT22;11395;53.204;6.502;2023-04-24T06:10:56;25.10;56.30
22456;DHT22;11395;53.204;6.502;2023-04-24T06:13:22;25.00;56.40
22456;DHT22;11395;53.204;6.502;2023-04-24T06:16:11;25.00;56.40
22456;DHT22;11395;53.204;6.502;2023-04-24T06:18:40;25.00;56.40
22456;DHT22;11395;53.204;6.502;2023-04-24T06:21:07;25.00;56.40
22456;DHT22;11395;53.204;6.502;2023-04-24T06:23:33;24.90;56.40
22456;DHT22;11395;53.204;6.502;2023-04-24T06:25:59;24.80;56.60
22456;DHT22;11395;53.204;6.502;2023-04-24T06:28:26;24.70;56.60
22456;DHT22;11395;53.204;6.502;2023-04-24T06:30:52;24.70;56.90
22456;DHT22;11395;53.204;6.502;2023-04-24T06:33:18;24.60;56.90
22456;DHT22;11395;53.204;6.502;2023-04-24T06:35:44;24.70;56.90
22456;DHT22;11395;53.204;6.502;2023-04-24T06:38:10;24.60;56.80
22456;DHT22;11395;53.204;6.502;2023-04-24T06:40:37;24.70;57.50
22456;DHT22;11395;53.204;6.502;2023-04-24T06:43:03;24.70;56.80
22456;DHT22;11395;53.204;6.502;2023-04-24T06:45:30;24.60;56.90
22456;DHT22;11395;53.204;6.502;2023-04-24T06:47:56;24.60;56.80
22456;DHT22;11395;53.204;6.502;2023-04-24T06:50:22;24.70;57.00
22456;DHT22;11395;53.204;6.502;2023-04-24T06:52:48;24.70;57.00
22456;DHT22;11395;53.204;6.502;2023-04-24T06:55:15;24.70;57.00
22456;DHT22;11395;53.204;6.502;2023-04-24T06:57:42;24.80;57.00
22456;DHT22;11395;53.204;6.502;2023-04-24T07:00:10;24.80;57.00
22456;DHT22;11395;53.204;6.502;2023-04-24T07:02:36;24.80;56.90
22456;DHT22;11395;53.204;6.502;2023-04-24T07:05:04;24.90;56.90
22456;DHT22;11395;53.204;6.502;2023-04-24T07:07:30;24.90;56.80
22456;DHT22;11395;53.204;6.502;2023-04-24T07:09:57;24.90;57.40
22456;DHT22;11395;53.204;6.502;2023-04-24T07:12:23;25.00;56.70
22456;DHT22;11395;53.204;6.502;2023-04-24T07:14:50;25.00;56.70
22456;DHT22;11395;53.204;6.502;2023-04-24T07:17:16;24.90;56.60
22456;DHT22;11395;53.204;6.502;2023-04-24T07:19:43;25.00;56.60
22456;DHT22;11395;53.204;6.502;2023-04-24T07:22:09;25.00;56.60
22456;DHT22;11395;53.204;6.502;2023-04-24T07:24:37;25.00;56.50
22456;DHT22;11395;53.204;6.502;2023-04-24T07:27:04;25.00;56.60
22456;DHT22;11395;53.204;6.502;2023-04-24T07:29:30;25.00;56.60
22456;DHT22;11395;53.204;6.502;2023-04-24T07:31:56;25.00;56.50
22456;DHT22;11395;53.204;6.502;2023-04-24T07:34:23;25.00;56.50
22456;DHT22;11395;53.204;6.502;2023-04-24T07:36:49;25.00;56.60
22456;DHT22;11395;53.204;6.502;2023-04-24T07:39:15;24.90;56.50
22456;DHT22;11395;53.204;6.502;2023-04-24T07:41:41;24.90;56.40
22456;DHT22;11395;53.204;6.502;2023-04-24T07:44:08;24.90;56.50
22456;DHT22;11395;53.204;6.502;2023-04-24T07:46:34;24.90;56.40
22456;DHT22;11395;53.204;6.502;2023-04-24T07:49:00;24.90;56.40
22456;DHT22;11395;53.204;6.502;2023-04-24T07:51:27;24.90;56.40
22456;DHT22;11395;53.204;6.502;2023-04-24T07:53:53;24.90;56.40
22456;DHT22;11395;53.204;6.502;2023-04-24T07:56:23;24.90;56.30
22456;DHT22;11395;53.204;6.502;2023-04-24T07:58:49;24.90;56.30
22456;DHT22;11395;53.204;6.502;2023-04-24T08:01:15;24.90;56.30
22456;DHT22;11395;53.204;6.502;2023-04-24T08:03:41;24.90;57.00
22456;DHT22;11395;53.204;6.502;2023-04-24T08:06:07;24.80;56.40
22456;DHT22;11395;53.204;6.502;2023-04-24T08:08:34;24.80;56.50
22456;DHT22;11395;53.204;6.502;2023-04-24T08:11:00;24.70;56.40
22456;DHT22;11395;53.204;6.502;2023-04-24T08:13:26;24.70;56.80
22456;DHT22;11395;53.204;6.502;2023-04-24T08:15:52;24.70;56.70
22456;DHT22;11395;53.204;6.502;2023-04-24T08:18:18;24.70;56.70
22456;DHT22;11395;53.204;6.502;2023-04-24T08:20:45;24.60;56.50
22456;DHT22;11395;53.204;6.502;2023-04-24T08:23:11;24.60;56.50
22456;DHT22;11395;53.204;6.502;2023-04-24T08:25:37;24.60;56.60
22456;DHT22;11395;53.204;6.502;2023-04-24T08:28:06;24.60;56.60
22456;DHT22;11395;53.204;6.502;2023-04-24T08:30:34;24.60;56.70
22456;DHT22;11395;53.204;6.502;2023-04-24T08:33:00;24.60;56.80
22456;DHT22;11395;53.204;6.502;2023-04-24T08:35:26;24.60;56.80
22456;DHT22;11395;53.204;6.502;2023-04-24T08:37:53;24.60;56.80
22456;DHT22;11395;53.204;6.502;2023-04-24T08:40:22;24.60;56.80
22456;DHT22;11395;53.204;6.502;2023-04-24T08:42:54;24.70;56.80
22456;DHT22;11395;53.204;6.502;2023-04-24T08:45:21;24.70;56.70
22456;DHT22;11395;53.204;6.502;2023-04-24T08:47:48;24.70;56.70
22456;DHT22;11395;53.204;6.502;2023-04-24T08:50:15;24.70;56.60
22456;DHT22;11395;53.204;6.502;2023-04-24T08:52:42;24.70;56.60
22456;DHT22;11395;53.204;6.502;2023-04-24T08:55:09;24.80;56.60
22456;DHT22;11395;53.204;6.502;2023-04-24T08:57:35;24.80;56.60
22456;DHT22;11395;53.204;6.502;2023-04-24T09:00:04;24.80;56.50
22456;DHT22;11395;53.204;6.502;2023-04-24T09:02:31;24.80;56.40
22456;DHT22;11395;53.204;6.502;2023-04-24T09:05:00;24.80;56.50
22456;DHT22;11395;53.204;6.502;2023-04-24T09:07:27;24.70;56.30
22456;DHT22;11395;53.204;6.502;2023-04-24T09:09:55;24.80;56.40
22456;DHT22;11395;53.204;6.502;2023-04-24T09:12:22;24.80;56.40
22456;DHT22;11395;53.204;6.502;2023-04-24T09:14:48;24.70;56.30
22456;DHT22;11395;53.204;6.502;2023-04-24T09:17:15;24.80;56.40
22456;DHT22;11395;53.204;6.502;2023-04-24T09:19:42;24.80;56.40
22456;DHT22;11395;53.204;6.502;2023-04-24T09:22:09;24.70;57.00
22456;DHT22;11395;53.204;6.502;2023-04-24T09:24:35;24.70;56.30
22456;DHT22;11395;53.204;6.502;2023-04-24T09:27:01;24.70;56.30
22456;DHT22;11395;53.204;6.502;2023-04-24T09:29:28;24.70;56.30
22456;DHT22;11395;53.204;6.502;2023-04-24T09:31:54;24.70;56.30
22456;DHT22;11395;53.204;6.502;2023-04-24T09:34:27;24.70;56.40
22456;DHT22;11395;53.204;6.502;2023-04-24T09:36:54;24.70;56.50
22456;DHT22;11395;53.204;6.502;2023-04-24T09:39:20;24.60;56.40
22456;DHT22;11395;53.204;6.502;2023-04-24T09:41:48;24.60;56.30
22456;DHT22;11395;53.204;6.502;2023-04-24T09:44:20;24.60;56.30
22456;DHT22;11395;53.204;6.502;2023-04-24T09:46:51;24.60;56.30
22456;DHT22;11395;53.204;6.502;2023-04-24T09:49:24;24.60;56.20
22456;DHT22;11395;53.204;6.502;2023-04-24T09:51:50;24.60;56.30
22456;DHT22;11395;53.204;6.502;2023-04-24T09:54:20;24.60;56.30
22456;DHT22;11395;53.204;6.502;2023-04-24T09:56:50;24.60;56.40
22456;DHT22;11395;53.204;6.502;2023-04-24T09:59:18;24.70;56.40
22456;DHT22;11395;53.204;6.502;2023-04-24T10:01:45;24.70;56.40
22456;DHT22;11395;53.204;6.502;2023-04-24T10:04:23;24.70;56.40
22456;DHT22;11395;53.204;6.502;2023-04-24T10:06:52;24.80;56.40
22456;DHT22;11395;53.204;6.502;2023-04-24T10:09:19;24.90;56.40
22456;DHT22;11395;53.204;6.502;2023-04-24T10:11:48;24.90;56.20
22456;DHT22;11395;53.204;6.502;2023-04-24T10:14:16;25.00;56.20
22456;DHT22;11395;53.204;6.502;2023-04-24T10:16:44;25.10;56.10
22456;DHT22;11395;53.204;6.502;2023-04-24T10:19:14;25.10;56.00
22456;DHT22;11395;53.204;6.502;2023-04-24T10:21:42;25.10;55.70
22456;DHT22;11395;53.204;6.502;2023-04-24T10:24:13;25.10;55.90
22456;DHT22;11395;53.204;6.502;2023-04-24T10:26:40;25.10;55.90
22456;DHT22;11395;53.204;6.502;2023-04-24T10:29:06;25.20;55.80
22456;DHT22;11395;53.204;6.502;2023-04-24T10:31:38;25.20;55.60
22456;DHT22;11395;53.204;6.502;2023-04-24T10:34:06;25.20;55.60
22456;DHT22;11395;53.204;6.502;2023-04-24T10:36:41;25.20;55.60
22456;DHT22;11395;53.204;6.502;2023-04-24T10:39:11;25.10;55.60
22456;DHT22;11395;53.204;6.502;2023-04-24T10:41:38;25.10;55.50
22456;DHT22;11395;53.204;6.502;2023-04-24T10:46:36;25.10;55.50
22456;DHT22;11395;53.204;6.502;2023-04-24T10:49:07;25.20;55.60
22456;DHT22;11395;53.204;6.502;2023-04-24T10:56:53;25.10;55.60
22456;DHT22;11395;53.204;6.502;2023-04-24T10:59:25;25.10;55.40
22456;DHT22;11395;53.204;6.502;2023-04-24T11:01:55;25.00;55.50
22456;DHT22;11395;53.204;6.502;2023-04-24T11:04:32;24.90;55.80
22456;DHT22;11395;53.204;6.502;2023-04-24T11:06:58;24.90;55.60
22456;DHT22;11395;53.204;6.502;2023-04-24T11:09:30;24.90;55.60
22456;DHT22;11395;53.204;6.502;2023-04-24T11:17:42;24.70;55.90
22456;DHT22;11395;53.204;6.502;2023-04-24T11:20:10;24.70;55.60
22456;DHT22;11395;53.204;6.502;2023-04-24T11:22:38;24.70;55.80
22456;DHT22;11395;53.204;6.502;2023-04-24T11:25:08;24.80;55.70
22456;DHT22;11395;53.204;6.502;2023-04-24T11:27:43;24.80;55.50
22456;DHT22;11395;53.204;6.502;2023-04-24T11:30:10;24.90;55.50
22456;DHT22;11395;53.204;6.502;2023-04-24T11:32:39;24.90;55.50
22456;DHT22;11395;53.204;6.502;2023-04-24T11:35:21;24.90;55.50
22456;DHT22;11395;53.204;6.502;2023-04-24T11:37:52;24.80;55.50
22456;DHT22;11395;53.204;6.502;2023-04-24T11:40:21;24.90;55.70
22456;DHT22;11395;53.204;6.502;2023-04-24T11:42:50;24.90;55.70
22456;DHT22;11395;53.204;6.502;2023-04-24T11:45:22;24.90;55.70
22456;DHT22;11395;53.204;6.502;2023-04-24T11:47:49;25.00;55.70
22456;DHT22;11395;53.204;6.502;2023-04-24T11:50:17;25.10;55.60
22456;DHT22;11395;53.204;6.502;2023-04-24T11:52:46;25.10;55.60
22456;DHT22;11395;53.204;6.502;2023-04-24T11:57:46;25.20;55.50
22456;DHT22;11395;53.204;6.502;2023-04-24T12:00:16;25.20;55.40
22456;DHT22;11395;53.204;6.502;2023-04-24T12:02:43;25.20;56.10
22456;DHT22;11395;53.204;6.502;2023-04-24T12:05:09;25.20;56.10
22456;DHT22;11395;53.204;6.502;2023-04-24T12:07:41;25.20;55.40
22456;DHT22;11395;53.204;6.502;2023-04-24T12:10:11;25.20;55.50
22456;DHT22;11395;53.204;6.502;2023-04-24T12:12:37;25.20;55.40
22456;DHT22;11395;53.204;6.502;2023-04-24T12:15:07;25.20;55.50
22456;DHT22;11395;53.204;6.502;2023-04-24T12:17:35;25.20;55.60
22456;DHT22;11395;53.204;6.502;2023-04-24T12:20:07;25.20;55.50
22456;DHT22;11395;53.204;6.502;2023-04-24T12:22:44;25.10;55.60
22456;DHT22;11395;53.204;6.502;2023-04-24T12:25:18;25.20;55.50
22456;DHT22;11395;53.204;6.502;2023-04-24T12:27:46;25.20;55.60
22456;DHT22;11395;53.204;6.502;2023-04-24T12:30:15;25.20;55.40
22456;DHT22;11395;53.204;6.502;2023-04-24T12:32:43;25.20;55.40
22456;DHT22;11395;53.204;6.502;2023-04-24T12:35:09;25.30;55.40
22456;DHT22;11395;53.204;6.502;2023-04-24T12:37:36;25.30;55.30
22456;DHT22;11395;53.204;6.502;2023-04-24T12:40:12;25.30;55.10
22456;DHT22;11395;53.204;6.502;2023-04-24T12:42:46;25.20;55.10
22456;DHT22;11395;53.204;6.502;2023-04-24T12:45:13;25.20;55.20
22456;DHT22;11395;53.204;6.502;2023-04-24T12:47:40;25.10;55.30
22456;DHT22;11395;53.204;6.502;2023-04-24T12:50:11;25.10;55.60
22456;DHT22;11395;53.204;6.502;2023-04-24T12:52:38;25.10;55.50
22456;DHT22;11395;53.204;6.502;2023-04-24T12:55:05;25.00;55.60
22456;DHT22;11395;53.204;6.502;2023-04-24T12:57:35;25.00;55.70
22456;DHT22;11395;53.204;6.502;2023-04-24T13:00:02;24.90;55.70
22456;DHT22;11395;53.204;6.502;2023-04-24T13:02:30;24.90;55.70
22456;DHT22;11395;53.204;6.502;2023-04-24T13:04:58;24.80;55.70
22456;DHT22;11395;53.204;6.502;2023-04-24T13:07:25;24.80;56.40
22456;DHT22;11395;53.204;6.502;2023-04-24T13:09:52;24.80;55.80
22456;DHT22;11395;53.204;6.502;2023-04-24T13:12:18;24.70;55.70
22456;DHT22;11395;53.204;6.502;2023-04-24T13:14:45;24.70;55.80
22456;DHT22;11395;53.204;6.502;2023-04-24T13:17:12;24.60;55.90
22456;DHT22;11395;53.204;6.502;2023-04-24T13:19:40;24.60;55.80
22456;DHT22;11395;53.204;6.502;2023-04-24T13:22:09;24.60;56.00
22456;DHT22;11395;53.204;6.502;2023-04-24T13:24:36;24.60;56.10
22456;DHT22;11395;53.204;6.502;2023-04-24T13:27:03;24.70;56.10
22456;DHT22;11395;53.204;6.502;2023-04-24T13:29:32;24.70;56.10
22456;DHT22;11395;53.204;6.502;2023-04-24T13:31:58;24.70;56.20
22456;DHT22;11395;53.204;6.502;2023-04-24T13:34:26;24.80;56.30
22456;DHT22;11395;53.204;6.502;2023-04-24T13:36:56;24.90;56.30
22456;DHT22;11395;53.204;6.502;2023-04-24T13:39:23;24.90;56.30
22456;DHT22;11395;53.204;6.502;2023-04-24T13:41:50;25.00;56.30
22456;DHT22;11395;53.204;6.502;2023-04-24T13:44:17;25.10;56.30
22456;DHT22;11395;53.204;6.502;2023-04-24T13:46:46;25.20;56.30
22456;DHT22;11395;53.204;6.502;2023-04-24T13:49:13;25.20;56.20
22456;DHT22;11395;53.204;6.502;2023-04-24T13:51:41;25.30;56.20
22456;DHT22;11395;53.204;6.502;2023-04-24T13:54:08;25.30;56.20
22456;DHT22;11395;53.204;6.502;2023-04-24T13:56:34;25.30;56.10
22456;DHT22;11395;53.204;6.502;2023-04-24T13:59:01;25.30;56.20
22456;DHT22;11395;53.204;6.502;2023-04-24T14:01:27;25.30;56.10
22456;DHT22;11395;53.204;6.502;2023-04-24T14:03:55;25.20;56.10
22456;DHT22;11395;53.204;6.502;2023-04-24T14:06:22;25.30;56.10
22456;DHT22;11395;53.204;6.502;2023-04-24T14:08:49;25.40;55.80
22456;DHT22;11395;53.204;6.502;2023-04-24T14:11:16;25.30;55.70
22456;DHT22;11395;53.204;6.502;2023-04-24T14:13:43;25.30;55.80
22456;DHT22;11395;53.204;6.502;2023-04-24T14:16:15;25.30;55.80
22456;DHT22;11395;53.204;6.502;2023-04-24T14:18:47;25.20;55.70
22456;DHT22;11395;53.204;6.502;2023-04-24T14:21:13;25.20;55.70
22456;DHT22;11395;53.204;6.502;2023-04-24T14:23:40;25.20;55.60
22456;DHT22;11395;53.204;6.502;2023-04-24T14:26:06;25.30;55.50
22456;DHT22;11395;53.204;6.502;2023-04-24T14:28:32;25.30;55.50
22456;DHT22;11395;53.204;6.502;2023-04-24T14:30:58;25.20;55.50
22456;DHT22;11395;53.204;6.502;2023-04-24T14:33:27;25.20;55.60
22456;DHT22;11395;53.204;6.502;2023-04-24T14:36:55;25.20;55.70
22456;DHT22;11395;53.204;6.502;2023-04-24T14:39:48;25.30;55.50
22456;DHT22;11395;53.204;6.502;2023-04-24T14:42:20;25.20;56.20
22456;DHT22;11395;53.204;6.502;2023-04-24T14:44:46;25.10;55.60
22456;DHT22;11395;53.204;6.502;2023-04-24T14:47:36;25.10;55.90
22456;DHT22;11395;53.204;6.502;2023-04-24T14:50:04;25.00;55.90
22456;DHT22;11395;53.204;6.502;2023-04-24T14:52:31;25.00;55.90
22456;DHT22;11395;53.204;6.502;2023-04-24T14:55:03;24.90;55.90
22456;DHT22;11395;53.204;6.502;2023-04-24T14:57:49;24.90;56.00
22456;DHT22;11395;53.204;6.502;2023-04-24T15:00:25;24.90;55.90
22456;DHT22;11395;53.204;6.502;2023-04-24T15:02:51;24.90;55.90
22456;DHT22;11395;53.204;6.502;2023-04-24T15:05:18;24.90;56.10
22456;DHT22;11395;53.204;6.502;2023-04-24T15:07:57;24.90;56.10
22456;DHT22;11395;53.204;6.502;2023-04-24T15:17:40;24.80;56.10
22456;DHT22;11395;53.204;6.502;2023-04-24T15:20:18;24.70;56.20
22456;DHT22;11395;53.204;6.502;2023-04-24T15:22:58;24.70;56.30
22456;DHT22;11395;53.204;6.502;2023-04-24T15:25:54;24.70;56.40
22456;DHT22;11395;53.204;6.502;2023-04-24T15:28:27;24.80;56.50
22456;DHT22;11395;53.204;6.502;2023-04-24T15:31:04;24.80;56.50
22456;DHT22;11395;53.204;6.502;2023-04-24T15:37:21;24.80;56.10
22456;DHT22;11395;53.204;6.502;2023-04-24T15:39:55;25.10;56.20
22456;DHT22;11395;53.204;6.502;2023-04-24T15:42:55;25.10;55.90
22456;DHT22;11395;53.204;6.502;2023-04-24T15:45:50;25.20;55.80
22456;DHT22;11395;53.204;6.502;2023-04-24T15:52:17;25.30;55.60
22456;DHT22;11395;53.204;6.502;2023-04-24T15:55:06;25.30;55.40
22456;DHT22;11395;53.204;6.502;2023-04-24T16:05:01;25.40;56.40
22456;DHT22;11395;53.204;6.502;2023-04-24T16:07:28;25.30;56.20
22456;DHT22;11395;53.204;6.502;2023-04-24T16:09:54;25.40;56.60
22456;DHT22;11395;53.204;6.502;2023-04-24T16:12:20;25.30;56.60
22456;DHT22;11395;53.204;6.502;2023-04-24T16:14:46;25.30;56.70
22456;DHT22;11395;53.204;6.502;2023-04-24T16:17:13;25.30;56.90